Time;durP1;ratioP1;P1;durP2;ratioP2;P2;SDS_P1;SDS_P2;PMS_P1;PMS_P2;Temp;Humidity;BMP_temperature;BMP_pressure;BME280_temperature;BME280_humidity;BME280_pressure;Samples;Min_cycle;Max_cycle;Signal;HPM_P1;HPM_P2
2023/03/03 00:01:08;;;;;;;32.83;20.20;;;;;;;3.70;100.00;99436.03;5049237;28;20220;-80
2023/03/03 00:03:36;;;;;;;32.00;19.17;;;;;;;3.83;100.00;99439.09;5049208;28;20193;-80
2023/03/03 00:06:06;;;;;;;33.50;19.00;;;;;;;3.80;100.00;99437.44;5049953;28;20328;-80
2023/03/03 00:08:34;;;;;;;32.87;20.87;;;;;;;3.52;100.00;99444.44;5007161;28;20210;-80
2023/03/03 00:11:05;;;;;;;33.97;20.67;;;;;;;3.26;100.00;99443.47;5009386;28;20316;-80
2023/03/03 00:13:42;;;;;;;34.27;20.67;;;;;;;3.41;100.00;99437.78;5005436;28;20199;-80
2023/03/03 00:16:15;;;;;;;35.43;20.53;;;;;;;3.28;100.00;99443.41;5002500;28;20247;-80
2023/03/03 00:18:45;;;;;;;34.27;20.53;;;;;;;3.42;100.00;99442.09;5008021;28;20191;-80
2023/03/03 00:21:29;;;;;;;33.33;20.07;;;;;;;3.30;100.00;99450.34;5000736;28;20230;-80
2023/03/03 00:24:17;;;;;;;35.43;20.20;;;;;;;3.36;100.00;99450.13;5000561;28;20198;-80
2023/03/03 00:26:47;;;;;;;35.33;20.40;;;;;;;3.07;100.00;99455.38;5024105;28;20221;-80
2023/03/03 00:29:36;;;;;;;33.70;20.93;;;;;;;3.16;100.00;99455.09;5051226;28;20219;-80
2023/03/03 00:32:22;;;;;;;36.63;21.07;;;;;;;3.29;100.00;99453.88;5047545;28;20246;-80
2023/03/03 00:34:52;;;;;;;36.43;21.27;;;;;;;3.33;100.00;99449.38;5049109;28;20201;-80
2023/03/03 00:37:30;;;;;;;32.37;19.60;;;;;;;3.36;100.00;99458.00;5048649;28;20232;-80
2023/03/03 00:40:20;;;;;;;35.97;20.40;;;;;;;3.34;100.00;99459.81;5048360;28;20304;-80
2023/03/03 00:42:51;;;;;;;36.03;21.03;;;;;;;3.14;100.00;99449.91;5046330;28;20740;-80
2023/03/03 00:45:43;;;;;;;39.20;21.53;;;;;;;2.99;100.00;99450.38;5051251;28;20221;-80
2023/03/03 00:48:22;;;;;;;36.47;20.93;;;;;;;3.02;100.00;99452.03;5051506;27;20246;-80
2023/03/03 00:50:53;;;;;;;37.50;21.37;;;;;;;2.96;100.00;99455.69;5049312;28;20227;-80
2023/03/03 00:53:23;;;;;;;36.37;21.07;;;;;;;2.94;100.00;99451.41;5042351;28;20242;-80
2023/03/03 00:55:52;;;;;;;38.80;22.87;;;;;;;2.88;100.00;99455.88;5047638;28;20200;-79
2023/03/03 00:58:22;;;;;;;34.33;21.37;;;;;;;2.70;100.00;99455.53;5044711;28;20292;-80
2023/03/03 01:00:55;;;;;;;38.60;22.20;;;;;;;2.70;100.00;99450.31;5048343;28;20659;-80
2023/03/03 01:03:25;;;;;;;39.23;22.47;;;;;;;2.91;100.00;99456.72;5048758;28;20228;-80
2023/03/03 01:05:55;;;;;;;39.57;22.07;;;;;;;2.72;100.00;99462.47;5048471;28;20196;-79
2023/03/03 01:08:24;;;;;;;40.73;22.13;;;;;;;2.71;100.00;99458.13;5048962;28;20589;-80
2023/03/03 01:10:54;;;;;;;39.37;22.23;;;;;;;2.62;100.00;99461.00;5050677;28;20204;-79
2023/03/03 01:13:27;;;;;;;35.43;22.17;;;;;;;2.55;100.00;99460.28;5050468;28;20670;-80
2023/03/03 01:15:56;;;;;;;38.53;22.50;;;;;;;2.71;100.00;99452.06;5051373;28;20200;-80
2023/03/03 01:18:25;;;;;;;39.10;22.47;;;;;;;2.65;100.00;99452.22;5051638;28;20189;-79
2023/03/03 01:20:53;;;;;;;41.13;23.20;;;;;;;2.59;100.00;99450.59;5051764;28;20189;-80
2023/03/03 01:23:22;;;;;;;38.30;22.27;;;;;;;2.64;100.00;99450.50;5057735;27;20242;-80
2023/03/03 01:25:51;;;;;;;41.13;24.37;;;;;;;2.75;100.00;99437.97;5052332;27;20185;-80
2023/03/03 01:28:19;;;;;;;40.40;23.80;;;;;;;2.61;100.00;99442.75;5048692;28;20272;-79
2023/03/03 01:30:48;;;;;;;43.93;24.33;;;;;;;2.53;100.00;99441.19;5050597;28;20223;-80
2023/03/03 01:33:18;;;;;;;42.93;23.70;;;;;;;2.51;100.00;99448.22;5051831;28;20193;-79
2023/03/03 01:35:46;;;;;;;47.00;26.13;;;;;;;2.38;100.00;99449.44;5050105;28;20201;-80
2023/03/03 01:38:15;;;;;;;44.03;23.67;;;;;;;2.71;100.00;99442.44;5051351;28;20218;-80
2023/03/03 01:40:53;;;;;;;44.23;25.37;;;;;;;2.33;100.00;99442.63;5045575;28;20215;-79
2023/03/03 01:43:21;;;;;;;42.50;25.00;;;;;;;2.18;100.00;99443.84;5051449;28;20213;-80
2023/03/03 01:46:33;;;;;;;46.63;26.33;;;;;;;2.11;100.00;99431.84;5047229;28;20225;-80
2023/03/03 01:49:10;;;;;;;43.53;25.10;;;;;;;1.96;100.00;99435.72;5051434;28;20189;-79
2023/03/03 01:51:46;;;;;;;44.13;25.13;;;;;;;2.09;100.00;99444.94;5054211;27;20226;-80
2023/03/03 01:54:20;;;;;;;48.83;26.43;;;;;;;2.06;100.00;99447.66;5049663;28;20268;-80
2023/03/03 01:56:50;;;;;;;47.93;26.03;;;;;;;1.85;100.00;99451.63;5048944;28;20652;-79
2023/03/03 01:59:21;;;;;;;46.00;25.73;;;;;;;1.88;100.00;99456.78;5012591;28;20198;-79
2023/03/03 02:01:50;;;;;;;48.30;25.90;;;;;;;1.80;100.00;99460.47;5006742;28;20244;-80
2023/03/03 02:04:20;;;;;;;47.47;26.07;;;;;;;1.98;100.00;99455.66;5006977;28;20205;-80
2023/03/03 02:06:54;;;;;;;46.57;25.63;;;;;;;2.08;100.00;99456.28;5001854;28;20187;-80
2023/03/03 02:09:32;;;;;;;49.97;27.07;;;;;;;1.98;100.00;99457.41;5005155;28;20198;-80
2023/03/03 02:12:07;;;;;;;48.37;26.23;;;;;;;2.13;100.00;99448.34;5009303;28;20195;-80
2023/03/03 02:14:35;;;;;;;45.77;26.33;;;;;;;1.99;100.00;99449.53;5009192;28;20190;-80
2023/03/03 02:17:04;;;;;;;50.27;26.90;;;;;;;2.06;100.00;99455.47;5014418;28;20713;-80
2023/03/03 02:19:42;;;;;;;48.00;26.67;;;;;;;1.87;100.00;99456.81;5046729;28;20262;-80
2023/03/03 02:22:11;;;;;;;47.40;27.37;;;;;;;1.85;100.00;99453.41;5048147;28;20225;-80
2023/03/03 02:24:45;;;;;;;51.33;28.57;;;;;;;1.83;100.00;99457.78;5051175;28;20197;-80
2023/03/03 02:27:14;;;;;;;50.30;29.03;;;;;;;1.54;100.00;99471.50;5048228;28;20205;-80
2023/03/03 02:29:43;;;;;;;50.13;27.67;;;;;;;1.65;100.00;99465.16;5055043;27;20246;-81
2023/03/03 02:32:11;;;;;;;50.00;27.83;;;;;;;1.48;100.00;99463.81;5052044;28;20644;-79
2023/03/03 02:34:52;;;;;;;57.20;30.50;;;;;;;1.37;100.00;99464.91;5112177;28;20198;-79
2023/03/03 02:37:20;;;;;;;52.17;28.77;;;;;;;1.32;100.00;99465.91;5112177;28;20240;-79
2023/03/03 02:39:49;;;;;;;53.20;28.20;;;;;;;1.47;100.00;99467.34;5106161;28;20247;-80
2023/03/03 02:42:21;;;;;;;51.20;29.47;;;;;;;1.31;100.00;99469.41;5107566;28;20194;-79
2023/03/03 02:44:50;;;;;;;54.63;28.47;;;;;;;1.14;100.00;99477.59;5106881;28;20689;-79
2023/03/03 02:47:19;;;;;;;54.77;29.30;;;;;;;1.27;100.00;99472.97;5107823;28;20203;-79
2023/03/03 02:49:47;;;;;;;58.43;30.13;;;;;;;1.17;100.00;99480.16;5058604;28;20187;-79
2023/03/03 02:52:17;;;;;;;53.43;30.40;;;;;;;1.05;100.00;99481.22;5109957;27;20220;-78
2023/03/03 02:54:46;;;;;;;55.33;28.13;;;;;;;1.23;100.00;99490.44;5132723;27;20183;-79
2023/03/03 02:57:14;;;;;;;57.63;30.40;;;;;;;1.03;100.00;99482.16;5133194;27;20197;-79
2023/03/03 02:59:44;;;;;;;52.33;29.40;;;;;;;1.07;100.00;99492.50;5132093;27;20202;-79
2023/03/03 03:02:12;;;;;;;58.40;32.37;;;;;;;0.92;100.00;99486.72;5133451;27;20198;-79
2023/03/03 03:04:41;;;;;;;62.73;31.30;;;;;;;1.16;100.00;99491.47;5132399;27;20275;-79
2023/03/03 03:07:10;;;;;;;58.70;30.37;;;;;;;1.39;100.00;99488.38;5129191;27;20293;-79
2023/03/03 03:09:38;;;;;;;59.40;31.10;;;;;;;1.54;100.00;99495.84;5131592;27;20675;-79
2023/03/03 03:12:07;;;;;;;57.60;30.50;;;;;;;1.39;100.00;99499.66;5132320;27;20189;-79
2023/03/03 03:14:35;;;;;;;62.03;31.17;;;;;;;1.45;100.00;99488.25;5128531;27;20247;-79
2023/03/03 03:17:05;;;;;;;55.80;29.90;;;;;;;1.35;100.00;99498.03;5128631;27;20609;-79
2023/03/03 03:19:34;;;;;;;57.90;30.20;;;;;;;1.26;100.00;99500.81;5133905;27;20207;-79
2023/03/03 03:22:02;;;;;;;57.07;30.50;;;;;;;1.44;100.00;99494.34;5123425;27;20243;-79
2023/03/03 03:24:31;;;;;;;58.57;30.27;;;;;;;1.48;100.00;99495.16;5126090;27;20217;-80
2023/03/03 03:26:59;;;;;;;58.23;30.27;;;;;;;1.32;100.00;99494.59;5130954;27;20202;-79
2023/03/03 03:29:27;;;;;;;58.37;31.43;;;;;;;1.35;100.00;99497.13;5139926;27;20193;-79
2023/03/03 03:31:55;;;;;;;55.33;28.87;;;;;;;1.49;100.00;99489.03;5127604;27;20187;-79
2023/03/03 03:34:25;;;;;;;56.50;29.33;;;;;;;1.49;100.00;99495.09;5126360;27;20202;-79
2023/03/03 03:36:54;;;;;;;55.23;27.83;;;;;;;1.72;100.00;99492.81;5135032;27;20209;-79
2023/03/03 03:39:22;;;;;;;56.80;29.57;;;;;;;1.65;100.00;99493.88;5126827;27;20194;-80
2023/03/03 03:41:50;;;;;;;54.77;28.77;;;;;;;1.77;100.00;99499.72;5131627;27;20204;-79
2023/03/03 03:44:19;;;;;;;55.70;29.80;;;;;;;1.69;100.00;99502.50;5085969;27;20249;-79
2023/03/03 03:46:47;;;;;;;53.43;27.10;;;;;;;1.62;100.00;99503.50;5049255;28;20216;-80
2023/03/03 03:49:16;;;;;;;49.73;27.60;;;;;;;1.72;100.00;99502.41;5047334;28;20204;-79
2023/03/03 03:51:48;;;;;;;50.87;27.23;;;;;;;1.76;100.00;99505.84;5045781;28;20193;-79
2023/03/03 03:54:17;;;;;;;57.23;29.33;;;;;;;1.42;100.00;99503.94;5048364;28;20201;-79
2023/03/03 03:56:45;;;;;;;53.77;29.27;;;;;;;1.66;100.00;99505.19;5050684;28;20226;-79
2023/03/03 03:59:14;;;;;;;54.07;28.67;;;;;;;1.42;100.00;99515.25;5044685;28;20197;-79
2023/03/03 04:01:42;;;;;;;58.20;30.00;;;;;;;1.47;100.00;99516.91;5049051;28;20277;-79
2023/03/03 04:04:11;;;;;;;55.47;29.47;;;;;;;1.50;100.00;99522.91;5044561;28;20221;-79
2023/03/03 04:06:39;;;;;;;54.53;28.80;;;;;;;1.24;100.00;99514.78;5049296;28;20197;-80
2023/03/03 04:09:09;;;;;;;56.20;29.93;;;;;;;1.22;100.00;99509.59;5045873;28;20205;-79
2023/03/03 04:11:37;;;;;;;57.27;30.10;;;;;;;1.20;100.00;99507.91;5046647;28;20205;-79
2023/03/03 04:14:05;;;;;;;53.93;29.57;;;;;;;1.07;100.00;99508.16;5012501;28;20197;-79
2023/03/03 04:16:33;;;;;;;61.57;31.00;;;;;;;1.21;100.00;99509.63;5047081;28;20201;-79
2023/03/03 04:19:02;;;;;;;59.17;28.77;;;;;;;1.33;100.00;99515.44;5047115;28;20185;-80
2023/03/03 04:21:30;;;;;;;57.37;28.57;;;;;;;1.20;100.00;99524.41;5049584;28;20196;-79
2023/03/03 04:23:58;;;;;;;63.33;32.60;;;;;;;0.93;100.00;99525.81;5047093;28;20217;-79
2023/03/03 04:26:29;;;;;;;59.13;29.73;;;;;;;1.05;100.00;99525.56;5048833;28;20190;-79
2023/03/03 04:28:58;;;;;;;60.37;30.37;;;;;;;1.14;100.00;99530.59;5051451;28;20193;-79
2023/03/03 04:31:27;;;;;;;61.33;31.90;;;;;;;1.18;100.00;99531.44;5053193;28;20212;-79
2023/03/03 04:33:55;;;;;;;61.50;30.63;;;;;;;0.93;100.00;99533.63;5046269;28;20189;-80
2023/03/03 04:36:23;;;;;;;57.63;29.90;;;;;;;1.09;100.00;99523.78;5046513;28;20270;-79
2023/03/03 04:38:52;;;;;;;61.97;30.17;;;;;;;1.05;100.00;99528.19;5044512;28;20209;-79
2023/03/03 04:41:20;;;;;;;59.87;28.57;;;;;;;1.17;100.00;99531.47;5049042;28;20250;-79
2023/03/03 04:43:50;;;;;;;61.67;30.73;;;;;;;1.37;100.00;99524.94;5048036;28;20221;-79
2023/03/03 04:46:18;;;;;;;57.10;28.90;;;;;;;1.44;100.00;99525.66;5049753;28;20281;-79
2023/03/03 04:48:47;;;;;;;58.13;28.77;;;;;;;1.35;100.00;99531.06;5052475;28;20215;-79
2023/03/03 04:51:15;;;;;;;58.17;28.00;;;;;;;1.44;100.00;99528.25;5053130;28;20273;-79
2023/03/03 04:53:43;;;;;;;58.90;29.57;;;;;;;1.56;100.00;99521.94;5058054;27;20651;-79
2023/03/03 04:56:11;;;;;;;55.13;28.70;;;;;;;1.55;100.00;99522.84;5057102;27;20241;-79
2023/03/03 04:58:40;;;;;;;59.37;27.87;;;;;;;1.63;100.00;99521.75;5052216;28;20196;-79
2023/03/03 05:01:13;;;;;;;61.47;30.17;;;;;;;1.59;100.00;99519.25;5052101;28;20201;-79
2023/03/03 05:03:41;;;;;;;65.00;31.33;;;;;;;1.39;100.00;99517.06;5047230;28;20275;-79
2023/03/03 05:06:10;;;;;;;63.83;31.57;;;;;;;1.30;100.00;99527.69;5045506;28;20696;-79
2023/03/03 05:08:39;;;;;;;70.30;33.63;;;;;;;1.32;100.00;99523.31;5051913;28;20193;-79
2023/03/03 05:11:07;;;;;;;61.77;31.00;;;;;;;1.27;100.00;99525.16;5051121;28;20193;-79
2023/03/03 05:13:36;;;;;;;108.70;50.13;;;;;;;1.28;100.00;99532.97;5049675;28;20221;-79
2023/03/03 05:16:05;;;;;;;108.40;46.93;;;;;;;1.46;100.00;99530.88;5050530;28;20193;-79
2023/03/03 05:18:35;;;;;;;105.40;47.80;;;;;;;1.43;100.00;99537.84;5055578;28;20201;-79
2023/03/03 05:21:03;;;;;;;72.90;36.03;;;;;;;1.34;100.00;99526.72;5051379;28;20193;-79
2023/03/03 05:23:32;;;;;;;61.17;29.83;;;;;;;1.35;100.00;99533.66;5051546;28;20190;-79
2023/03/03 05:26:00;;;;;;;78.83;38.37;;;;;;;1.15;100.00;99536.69;5050336;28;20751;-79
2023/03/03 05:28:28;;;;;;;75.90;36.07;;;;;;;1.06;100.00;99529.94;5051686;28;20258;-79
2023/03/03 05:30:57;;;;;;;75.23;36.13;;;;;;;1.12;100.00;99536.75;5051742;28;20185;-80
2023/03/03 05:33:25;;;;;;;80.67;37.87;;;;;;;1.07;100.00;99543.81;5051697;28;20201;-79
2023/03/03 05:35:57;;;;;;;78.10;38.30;;;;;;;1.01;100.00;99550.00;5051225;28;20197;-79
2023/03/03 05:38:25;;;;;;;70.10;34.90;;;;;;;0.98;100.00;99549.22;5051444;28;20197;-79
2023/03/03 05:40:54;;;;;;;79.20;39.40;;;;;;;0.99;100.00;99550.94;5050363;28;20197;-79
2023/03/03 05:43:22;;;;;;;60.93;30.43;;;;;;;1.04;100.00;99556.91;5053531;28;20257;-79
2023/03/03 05:45:55;;;;;;;54.83;28.03;;;;;;;1.34;100.00;99550.22;5050901;28;20224;-79
2023/03/03 05:48:24;;;;;;;61.93;32.33;;;;;;;1.21;100.00;99541.78;5051520;28;20321;-79
2023/03/03 05:50:52;;;;;;;65.40;31.77;;;;;;;1.30;100.00;99546.81;5050034;28;20213;-80
2023/03/03 05:53:22;;;;;;;58.47;30.00;;;;;;;1.45;100.00;99553.50;5055182;27;20201;-79
2023/03/03 05:55:50;;;;;;;55.10;28.40;;;;;;;1.47;100.00;99563.91;5047516;28;20269;-79
2023/03/03 05:58:19;;;;;;;56.17;29.07;;;;;;;1.35;100.00;99557.16;5049212;28;20192;-79
2023/03/03 06:00:49;;;;;;;57.23;27.83;;;;;;;1.43;100.00;99558.72;5047867;28;20201;-79
2023/03/03 06:03:17;;;;;;;66.93;33.20;;;;;;;1.56;100.00;99567.19;5057233;27;20197;-79
2023/03/03 06:05:45;;;;;;;59.37;32.13;;;;;;;1.67;100.00;99559.13;5048290;28;20687;-79
2023/03/03 06:08:14;;;;;;;57.17;28.90;;;;;;;1.53;100.00;99562.00;5050869;28;20268;-79
2023/03/03 06:10:43;;;;;;;50.13;26.63;;;;;;;1.33;100.00;99567.63;5048004;28;20198;-79
2023/03/03 06:13:11;;;;;;;54.90;26.70;;;;;;;1.52;100.00;99567.25;5057348;27;20197;-79
2023/03/03 06:15:40;;;;;;;58.33;28.47;;;;;;;1.53;100.00;99579.41;5051224;28;20225;-79
2023/03/03 06:18:08;;;;;;;58.23;31.60;;;;;;;1.71;100.00;99577.28;5050932;28;20264;-79
2023/03/03 06:20:37;;;;;;;61.23;33.80;;;;;;;1.31;100.00;99576.38;5050006;28;20201;-79
2023/03/03 06:23:06;;;;;;;54.57;26.73;;;;;;;1.36;100.00;99574.56;5044109;28;20197;-79
2023/03/03 06:25:34;;;;;;;56.77;25.60;;;;;;;1.30;100.00;99583.34;5050578;28;20217;-79
2023/03/03 06:28:04;;;;;;;47.97;25.17;;;;;;;1.33;100.00;99582.41;5050959;28;20189;-79
2023/03/03 06:30:32;;;;;;;52.10;26.03;;;;;;;1.46;100.00;99588.28;5050896;27;20193;-79
2023/03/03 06:33:01;;;;;;;55.23;26.17;;;;;;;1.41;100.00;99590.97;5055522;27;20193;-79
2023/03/03 06:35:29;;;;;;;51.60;24.90;;;;;;;1.33;100.00;99605.91;5053199;27;20636;-79
2023/03/03 06:37:58;;;;;;;49.70;25.03;;;;;;;1.37;100.00;99610.19;5050254;28;20667;-79
2023/03/03 06:40:26;;;;;;;48.53;23.33;;;;;;;1.40;100.00;99615.34;5050323;28;20196;-80
2023/03/03 06:42:54;;;;;;;49.37;24.23;;;;;;;1.27;100.00;99616.47;5051832;28;20189;-79
2023/03/03 06:45:24;;;;;;;48.40;24.97;;;;;;;1.34;100.00;99626.75;5050218;28;20229;-79
2023/03/03 06:47:52;;;;;;;48.43;24.93;;;;;;;1.46;100.00;99619.59;5050320;28;20197;-78
2023/03/03 06:50:21;;;;;;;47.67;22.50;;;;;;;1.45;100.00;99629.19;5045801;28;20200;-79
2023/03/03 06:52:50;;;;;;;43.40;21.13;;;;;;;1.34;100.00;99631.09;5051953;28;20238;-79
2023/03/03 06:55:23;;;;;;;41.93;20.90;;;;;;;1.22;100.00;99634.81;5057313;28;20232;-79
2023/03/03 06:57:54;;;;;;;41.90;21.27;;;;;;;1.18;100.00;99642.75;5056391;27;20234;-79
2023/03/03 07:00:27;;;;;;;42.53;20.57;;;;;;;1.37;100.00;99646.72;5050414;28;20196;-79
2023/03/03 07:03:01;;;;;;;41.80;20.27;;;;;;;1.12;100.00;99657.59;5049843;28;20197;-79
2023/03/03 07:05:31;;;;;;;40.27;21.67;;;;;;;1.12;100.00;99646.31;5053030;27;20288;-79
2023/03/03 07:08:00;;;;;;;45.17;24.00;;;;;;;1.07;100.00;99650.75;5045376;28;20232;-80
2023/03/03 07:10:30;;;;;;;44.33;22.20;;;;;;;1.42;100.00;99658.78;5042841;28;20213;-79
2023/03/03 07:13:14;;;;;;;44.47;23.13;;;;;;;1.22;100.00;99653.06;5054055;27;20200;-79
2023/03/03 07:15:44;;;;;;;43.67;20.77;;;;;;;0.96;100.00;99657.88;5049761;28;20193;-79
2023/03/03 07:18:25;;;;;;;40.30;20.80;;;;;;;1.38;100.00;99653.66;5052186;28;20201;-79
2023/03/03 07:20:54;;;;;;;40.17;20.87;;;;;;;1.44;100.00;99650.91;5050369;28;20196;-79
2023/03/03 07:23:25;;;;;;;38.43;20.47;;;;;;;1.49;100.00;99649.09;5044900;28;20201;-79
2023/03/03 07:25:53;;;;;;;42.43;21.93;;;;;;;1.56;100.00;99662.91;5043950;28;20293;-79
2023/03/03 07:28:24;;;;;;;38.87;18.83;;;;;;;1.19;100.00;99665.31;5053281;27;20219;-79
2023/03/03 07:30:56;;;;;;;38.13;20.20;;;;;;;1.37;100.00;99665.84;5047307;28;20193;-79
2023/03/03 07:33:27;;;;;;;39.30;20.90;;;;;;;1.17;100.00;99669.72;5051180;28;20237;-80
2023/03/03 07:35:58;;;;;;;39.27;20.07;;;;;;;1.38;100.00;99675.41;5048378;28;20197;-79
2023/03/03 07:38:31;;;;;;;36.00;18.77;;;;;;;1.55;100.00;99682.06;5018988;28;20387;-79
2023/03/03 07:41:02;;;;;;;33.93;18.07;;;;;;;1.70;100.00;99669.56;5047062;28;20218;-79
2023/03/03 07:43:34;;;;;;;35.27;19.50;;;;;;;1.87;100.00;99678.81;5049416;28;20310;-79
2023/03/03 07:46:21;;;;;;;35.60;18.47;;;;;;;1.71;100.00;99683.47;5046929;28;20236;-79
2023/03/03 07:48:50;;;;;;;32.03;16.87;;;;;;;1.52;100.00;99671.66;5048403;28;20200;-80
2023/03/03 07:51:24;;;;;;;31.00;15.97;;;;;;;1.50;100.00;99673.44;5015336;28;20453;-79
2023/03/03 07:53:53;;;;;;;31.97;16.10;;;;;;;1.69;100.00;99680.03;5050923;27;20276;-79
2023/03/03 07:56:29;;;;;;;30.63;16.87;;;;;;;1.71;100.00;99675.63;5047031;28;20197;-79
2023/03/03 07:58:58;;;;;;;27.10;14.63;;;;;;;1.88;100.00;99686.59;5051040;28;20193;-79
2023/03/03 08:01:48;;;;;;;33.33;15.47;;;;;;;1.68;100.00;99679.19;5045642;28;20249;-78
2023/03/03 08:04:19;;;;;;;29.03;15.47;;;;;;;1.55;100.00;99680.31;5046481;28;20246;-78
2023/03/03 08:06:53;;;;;;;32.87;17.00;;;;;;;1.34;100.00;99686.75;5049182;28;20218;-79
2023/03/03 08:09:35;;;;;;;27.33;15.10;;;;;;;1.56;100.00;99687.25;5045072;28;20643;-78
2023/03/03 08:12:32;;;;;;;32.47;16.37;;;;;;;1.63;100.00;99675.78;5049104;28;20189;-79
2023/03/03 08:15:19;;;;;;;30.20;15.87;;;;;;;1.46;100.00;99682.22;5049325;28;20197;-79
2023/03/03 08:17:51;;;;;;;28.63;15.43;;;;;;;1.44;100.00;99682.22;5056858;27;20197;-79
2023/03/03 08:20:42;;;;;;;29.20;14.37;;;;;;;1.70;100.00;99687.81;5052680;28;20249;-78
2023/03/03 08:23:11;;;;;;;29.17;15.13;;;;;;;1.47;100.00;99679.59;5055775;28;20249;-79
2023/03/03 08:25:41;;;;;;;31.10;15.50;;;;;;;1.76;100.00;99688.63;5048559;28;20217;-79
2023/03/03 08:28:10;;;;;;;30.07;15.67;;;;;;;1.85;100.00;99694.50;5051059;28;20201;-78
2023/03/03 08:30:38;;;;;;;27.20;14.90;;;;;;;1.72;100.00;99691.25;5052702;28;20193;-78
2023/03/03 08:33:09;;;;;;;30.73;15.97;;;;;;;1.77;100.00;99693.81;5055193;28;20200;-79
2023/03/03 08:35:37;;;;;;;27.50;14.23;;;;;;;1.70;100.00;99694.81;5049807;28;20197;-79
2023/03/03 08:38:06;;;;;;;31.23;16.00;;;;;;;1.64;100.00;99689.69;5045526;28;20275;-79
2023/03/03 08:40:35;;;;;;;29.53;14.77;;;;;;;1.81;100.00;99698.06;5051125;28;20197;-79
2023/03/03 08:43:04;;;;;;;29.20;15.17;;;;;;;1.77;100.00;99696.41;5058773;27;20200;-80
2023/03/03 08:45:33;;;;;;;28.83;15.67;;;;;;;1.40;100.00;99699.72;5052322;28;20221;-79
2023/03/03 08:48:01;;;;;;;26.33;15.13;;;;;;;1.34;100.00;99699.81;5052322;28;20193;-79
2023/03/03 08:50:34;;;;;;;24.43;13.87;;;;;;;1.37;100.00;99701.53;5052498;28;20319;-78
2023/03/03 08:53:02;;;;;;;28.67;15.87;;;;;;;1.41;100.00;99705.78;5053630;28;20191;-79
2023/03/03 08:55:31;;;;;;;29.87;14.73;;;;;;;1.25;100.00;99710.41;5048164;28;20270;-78
2023/03/03 08:57:59;;;;;;;26.57;13.90;;;;;;;1.43;100.00;99704.88;5045283;28;20200;-79
2023/03/03 09:00:28;;;;;;;31.10;15.03;;;;;;;1.42;100.00;99699.69;5054160;28;20246;-78
2023/03/03 09:02:57;;;;;;;25.87;13.90;;;;;;;1.49;100.00;99695.22;5045615;28;20250;-78
2023/03/03 09:05:26;;;;;;;29.97;15.30;;;;;;;1.57;100.00;99704.63;5058390;27;20205;-79
2023/03/03 09:07:56;;;;;;;25.83;13.90;;;;;;;1.68;100.00;99714.88;5048369;28;20244;-79
2023/03/03 09:10:29;;;;;;;26.37;13.60;;;;;;;1.91;100.00;99717.88;5048210;28;20254;-79
2023/03/03 09:13:02;;;;;;;25.13;12.67;;;;;;;2.12;100.00;99719.19;5052802;28;20204;-79
2023/03/03 09:15:33;;;;;;;24.73;13.03;;;;;;;1.86;100.00;99716.28;5052408;28;20201;-79
2023/03/03 09:18:14;;;;;;;23.60;11.87;;;;;;;1.91;100.00;99715.25;5053090;28;20201;-79
2023/03/03 09:20:43;;;;;;;21.73;12.13;;;;;;;1.65;100.00;99723.63;5054112;28;20225;-78
2023/03/03 09:23:34;;;;;;;25.83;13.43;;;;;;;1.76;100.00;99719.94;5051710;28;20201;-78
2023/03/03 09:26:25;;;;;;;24.37;12.40;;;;;;;1.69;100.00;99724.41;5050511;28;20690;-78
2023/03/03 09:28:55;;;;;;;26.97;12.50;;;;;;;1.83;100.00;99729.38;5052625;28;20264;-79
2023/03/03 09:31:27;;;;;;;23.83;12.63;;;;;;;1.75;100.00;99736.50;5051586;28;20204;-80
2023/03/03 09:33:56;;;;;;;25.80;12.43;;;;;;;1.76;100.00;99738.22;5052885;28;20716;-80
2023/03/03 09:36:27;;;;;;;26.00;14.37;;;;;;;1.74;100.00;99735.66;5052920;28;20242;-79
2023/03/03 09:38:59;;;;;;;24.27;13.00;;;;;;;1.88;100.00;99735.38;5052289;28;20208;-78
2023/03/03 09:42:11;;;;;;;24.80;12.67;;;;;;;2.21;100.00;99744.28;5052942;28;20220;-80
2023/03/03 09:45:16;;;;;;;24.60;12.43;;;;;;;2.07;100.00;99738.47;5053500;28;20251;-79
2023/03/03 09:48:08;;;;;;;22.63;12.63;;;;;;;2.07;100.00;99741.94;5051676;28;20248;-78
2023/03/03 09:50:45;;;;;;;22.87;12.37;;;;;;;1.94;100.00;99743.97;5056359;28;20201;-78
2023/03/03 09:53:26;;;;;;;24.07;12.83;;;;;;;1.86;100.00;99745.00;5053420;28;20189;-79
2023/03/03 09:56:03;;;;;;;22.30;12.00;;;;;;;1.82;100.00;99751.16;5048344;28;20197;-79
2023/03/03 09:58:57;;;;;;;22.53;11.70;;;;;;;1.89;100.00;99757.97;5052894;28;20197;-81
2023/03/03 10:01:43;;;;;;;22.87;11.63;;;;;;;1.83;100.00;99758.09;5051008;28;20197;-78
2023/03/03 10:04:36;;;;;;;23.10;11.40;;;;;;;2.14;100.00;99763.59;5051434;28;20193;-81
2023/03/03 10:07:20;;;;;;;21.00;11.77;;;;;;;2.22;100.00;99757.34;5022104;28;20215;-80
2023/03/03 10:10:05;;;;;;;20.57;11.93;;;;;;;1.92;100.00;99753.56;5046095;28;20205;-80
2023/03/03 10:12:44;;;;;;;22.80;11.47;;;;;;;2.24;100.00;99757.28;5045275;28;20249;-80
2023/03/03 10:15:31;;;;;;;20.53;12.13;;;;;;;2.76;100.00;99761.38;5046832;28;20205;-80
2023/03/03 10:18:24;;;;;;;25.60;13.07;;;;;;;2.90;100.00;99759.34;5051182;28;20325;-80
2023/03/03 10:21:02;;;;;;;22.77;11.63;;;;;;;3.20;100.00;99754.25;5049389;28;20196;-80
2023/03/03 10:24:02;;;;;;;22.20;11.70;;;;;;;3.40;100.00;99762.47;5050431;28;20197;-81
2023/03/03 10:26:48;;;;;;;22.57;12.87;;;;;;;3.43;100.00;99749.31;5050780;28;20205;-81
2023/03/03 10:29:45;;;;;;;23.07;13.23;;;;;;;3.09;100.00;99752.78;5050731;28;20204;-81
2023/03/03 10:32:38;;;;;;;23.73;13.57;;;;;;;2.81;100.00;99754.31;5049868;28;20204;-80
2023/03/03 10:35:23;;;;;;;24.70;13.67;;;;;;;2.77;100.00;99763.09;5047666;28;20652;-80
2023/03/03 10:38:05;;;;;;;23.70;13.80;;;;;;;2.73;100.00;99761.47;5047941;28;20584;-80
2023/03/03 10:40:39;;;;;;;25.60;13.73;;;;;;;2.87;100.00;99762.84;5049312;28;20242;-80
2023/03/03 10:43:26;;;;;;;24.27;12.73;;;;;;;3.16;100.00;99754.31;5053200;27;20200;-80
2023/03/03 10:46:26;;;;;;;21.43;12.57;;;;;;;3.12;100.00;99759.69;5047506;28;20281;-80
2023/03/03 10:49:24;;;;;;;22.03;12.37;;;;;;;2.96;100.00;99761.78;5047957;28;20351;-80
2023/03/03 10:52:14;;;;;;;22.27;12.43;;;;;;;3.22;100.00;99763.78;5044758;28;20265;-80
2023/03/03 10:54:56;;;;;;;21.90;12.33;;;;;;;3.35;100.00;99767.81;5046794;28;20201;-81
2023/03/03 10:57:34;;;;;;;19.47;11.37;;;;;;;3.31;100.00;99770.56;5051323;28;20207;-80
2023/03/03 11:00:15;;;;;;;21.23;11.43;;;;;;;3.30;100.00;99766.22;5044855;28;20237;-80
2023/03/03 11:03:12;;;;;;;20.17;11.10;;;;;;;3.50;100.00;99766.59;5050269;28;20257;-80
2023/03/03 11:05:46;;;;;;;18.83;11.30;;;;;;;3.24;100.00;99775.06;5056546;27;20228;-80
2023/03/03 11:08:21;;;;;;;19.93;11.67;;;;;;;3.17;100.00;99774.34;5050058;28;20212;-81
2023/03/03 11:10:58;;;;;;;21.57;11.47;;;;;;;3.12;100.00;99762.28;5049169;28;20208;-80
2023/03/03 11:13:38;;;;;;;23.33;11.90;;;;;;;3.17;100.00;99771.75;5050126;28;20197;-80
2023/03/03 11:16:22;;;;;;;22.73;11.53;;;;;;;3.43;100.00;99770.25;5049999;28;20302;-80
2023/03/03 11:19:23;;;;;;;20.83;11.00;;;;;;;3.62;100.00;99761.03;5129418;27;20201;-80
2023/03/03 11:22:06;;;;;;;19.80;11.30;;;;;;;4.14;100.00;99763.97;5125422;27;20186;-81
2023/03/03 11:24:46;;;;;;;17.30;11.13;;;;;;;4.21;100.00;99747.19;5128510;27;20206;-80
2023/03/03 11:27:32;;;;;;;20.70;11.27;;;;;;;4.67;100.00;99753.69;5125725;27;20213;-81
2023/03/03 11:30:18;;;;;;;19.77;10.30;;;;;;;4.20;100.00;99754.19;5127585;27;20637;-80
2023/03/03 11:32:52;;;;;;;18.47;9.97;;;;;;;4.57;100.00;99753.13;5129317;27;20198;-81
2023/03/03 11:35:26;;;;;;;18.93;10.97;;;;;;;4.58;100.00;99744.34;5132090;27;20190;-81
2023/03/03 11:38:06;;;;;;;16.53;10.37;;;;;;;4.45;100.00;99738.63;5063199;27;20197;-81
2023/03/03 11:40:45;;;;;;;17.73;10.70;;;;;;;4.37;100.00;99735.34;5048230;28;20249;-80
2023/03/03 11:43:20;;;;;;;18.90;9.90;;;;;;;4.57;100.00;99733.00;5055260;28;20226;-80
2023/03/03 11:46:08;;;;;;;17.40;10.53;;;;;;;4.19;100.00;99731.50;5050341;28;20229;-80